Airfield :
LOGIN :

Register | Disclaimer

   EN    FR    IT 

 










Legend :    VFR   Marginal VFR   IFR   Intensive IFR   Very Intensive IFR
Visi :
Ceiling :
>= 8 km
>= 3000ft
5 to 8 km
1000 to 3000 ft
1500m to 5 km
500 to 1000 ft
800 to 1500m
200 to 500 ft
< 800m
< 200 ft
Symbols :   Thunderstorms  Fog  Heavy snow  Heavy precipitations  Wind > 20 kt
SIGMETs :     Misc.  Thunderstorms  Icing  Turbulence  Mountain Waves  Volcanic Ashes






- Airport Elevation : 74 ft
- IATA code : LRH


LFBH - La Rochelle Ile de Ré

CURRENT METAR :
  • 012230Z AUTO 18020G31KT 150V210 5000 RA BR OVC007/// ///TCU 15/14 Q0989 TEMPO 19035G55KT 2000 RA BKN010 BKN020CB

EXPIRED METARs :
  • 012200Z AUTO 17022G33KT 7000 RA BKN008/// BKN012/// BKN026/// ///CB 15/13 Q0991 TEMPO 19035G55KT 2000 RA BKN010 BKN020CB
  • 012130Z AUTO 16021KT 6000 -RA FEW012/// BKN019/// BKN031/// ///TCU 15/13 Q0992 TEMPO 19035G55KT 2000 RA BKN010 BKN020CB
  • 012100Z AUTO 15017KT 9999 -RA FEW009/// SCT040/// OVC086/// ///CB 14/13 Q0994 TEMPO 19035G55KT 2000 RA BKN010 BKN020CB
  • 012030Z AUTO 17015KT 9999 -RA FEW013/// SCT031/// BKN068/// ///TCU 14/11 Q0995 TEMPO 19035G55KT 2000 RA BKN010 BKN020CB
  • 012000Z AUTO 18018KT 9000 -RA FEW017/// BKN029/// BKN038/// ///CB 14/12 Q0997 TEMPO 18020G35KT 2000 RA BKN013 BKN030TCU

TAF AMD TAF LFBH
Valid from the 01 at 18:00 until the 02 at 18:00 UTC


011712Z 0118/0218 20010KT 9999 BKN030
BECMG 0118/0120 20015G25KT
TEMPO 0118/0120 4000 -SHRA
PROB40 0120/0202 18020G35KT 2000 RA BKN013 BKN030TCU
PROB40
TEMPO 0122/0201 19035G55KT BKN010 BKN020CB
BECMG 0202/0204 26015KT
PROB40
TEMPO 0202/0210 26015G25KT 4000 SHRA BKN025TCU
PROB30
TEMPO 0210/0218 24015G25KT SHRA BKN030TCU
ATIS : +33 5 46 00 13 92



MET'MAP, your aeronautical weather chart ! - Copyright ORBIFLY December 2007 - Disclaimer

ORBIFLY MET'MAP TEAM :

Programming & Development : Alexandra Zaïnal
Concept & original design : Baudouin d'Aumeries
Assistance for programming : Marc-Olivier Méhu
Technical & hardware support : Manuel Goepfert

Contact : metmap@orbifly.com




SOURCES & CREDITS :

   NOAA